createdAt,value
2022-10-17T00:00:49.918Z,26.88
2022-10-17T00:03:39.966Z,26.86
2022-10-17T00:06:29.123Z,26.86
2022-10-17T00:09:19.133Z,26.82
2022-10-17T00:12:09.076Z,26.79
2022-10-17T00:14:57.896Z,26.79
2022-10-17T00:17:47.067Z,26.78
2022-10-17T00:20:39.010Z,26.80
2022-10-17T00:23:30.648Z,26.77
2022-10-17T00:26:22.072Z,26.75
2022-10-17T00:29:11.296Z,26.75
2022-10-17T00:32:00.371Z,26.75
2022-10-17T00:34:49.434Z,26.75
2022-10-17T00:37:38.299Z,26.74
2022-10-17T00:40:28.272Z,26.75
2022-10-17T00:43:19.249Z,26.75
2022-10-17T00:46:07.719Z,26.73
2022-10-17T00:48:57.457Z,26.74
2022-10-17T00:51:50.484Z,26.71
2022-10-17T00:54:41.536Z,26.69
2022-10-17T00:57:31.971Z,26.72
2022-10-17T01:00:21.925Z,26.72
2022-10-17T01:03:10.425Z,26.69
2022-10-17T01:05:58.990Z,26.70
2022-10-17T01:08:47.515Z,26.68
2022-10-17T01:11:41.621Z,26.64
2022-10-17T01:14:33.889Z,26.63
2022-10-17T01:17:31.698Z,26.62
2022-10-17T01:20:44.354Z,26.64
2022-10-17T01:23:49.742Z,26.65
2022-10-17T01:26:52.048Z,26.63
2022-10-17T01:29:55.055Z,26.60
2022-10-17T01:32:51.793Z,26.54
2022-10-17T01:35:43.747Z,26.56
2022-10-17T01:38:36.667Z,26.56
2022-10-17T01:41:30.742Z,26.57
2022-10-17T01:44:21.860Z,26.56
2022-10-17T01:47:12.684Z,26.56
2022-10-17T01:50:06.128Z,26.58
2022-10-17T01:52:56.469Z,26.60
2022-10-17T01:55:47.395Z,26.56
2022-10-17T01:58:39.357Z,26.56
2022-10-17T02:01:28.567Z,26.55
2022-10-17T02:04:17.033Z,26.54
2022-10-17T02:07:10.903Z,26.55
2022-10-17T02:09:59.304Z,26.55
2022-10-17T02:12:51.806Z,26.53
2022-10-17T02:16:06.325Z,26.49
2022-10-17T02:19:09.516Z,26.50
2022-10-17T02:22:07.280Z,26.48
2022-10-17T02:25:02.390Z,26.47
2022-10-17T02:27:55.585Z,26.50
2022-10-17T02:30:48.189Z,26.49
2022-10-17T02:33:40.793Z,26.50
2022-10-17T02:36:32.615Z,26.48
2022-10-17T02:39:22.068Z,26.49
2022-10-17T02:42:14.201Z,26.47
2022-10-17T02:45:05.068Z,26.47
2022-10-17T02:47:59.248Z,26.49
2022-10-17T02:50:56.393Z,26.47
2022-10-17T02:53:50.149Z,26.49
2022-10-17T02:56:43.475Z,26.49
2022-10-17T02:59:35.489Z,26.47
2022-10-17T03:02:24.317Z,26.47
2022-10-17T03:05:14.912Z,26.47
2022-10-17T03:08:03.793Z,26.45
2022-10-17T03:10:52.499Z,26.46
2022-10-17T03:13:40.955Z,26.45
2022-10-17T03:16:30.819Z,26.43
2022-10-17T03:19:19.170Z,26.45
2022-10-17T03:22:09.945Z,26.43
2022-10-17T03:24:58.463Z,26.43
2022-10-17T03:27:46.891Z,26.39
2022-10-17T03:30:35.793Z,26.38
2022-10-17T03:33:27.253Z,26.39
2022-10-17T03:36:17.069Z,26.42
2022-10-17T03:39:05.639Z,26.40
2022-10-17T03:41:54.032Z,26.40
2022-10-17T03:44:42.498Z,26.38
2022-10-17T03:47:31.290Z,26.37
2022-10-17T03:50:21.326Z,26.36
2022-10-17T03:53:09.778Z,26.36
2022-10-17T03:55:58.610Z,26.33
2022-10-17T03:58:47.327Z,26.36
2022-10-17T04:01:35.795Z,26.35
2022-10-17T04:04:24.309Z,26.33
2022-10-17T04:07:14.113Z,26.34
2022-10-17T04:10:02.555Z,26.34
2022-10-17T04:12:51.027Z,26.31
2022-10-17T04:15:39.413Z,26.33
2022-10-17T04:18:28.183Z,26.34
2022-10-17T04:21:16.635Z,26.32
2022-10-17T04:24:07.299Z,26.36
2022-10-17T04:26:56.043Z,26.35
2022-10-17T04:29:44.987Z,26.31
2022-10-17T04:32:33.411Z,26.31
2022-10-17T04:35:21.891Z,26.30
2022-10-17T04:38:10.403Z,26.28
2022-10-17T04:41:03.029Z,26.30
2022-10-17T04:43:51.640Z,26.35
2022-10-17T04:46:40.120Z,26.29
2022-10-17T04:49:28.735Z,26.34
2022-10-17T04:52:17.247Z,26.37
2022-10-17T04:55:06.434Z,26.35
2022-10-17T04:57:56.375Z,26.49
2022-10-17T05:00:45.062Z,26.41
2022-10-17T05:03:33.627Z,26.36
2022-10-17T05:06:23.401Z,26.33
2022-10-17T05:09:11.915Z,26.30
2022-10-17T05:12:00.350Z,26.30
2022-10-17T05:14:50.182Z,26.29
2022-10-17T05:17:38.617Z,26.30
2022-10-17T05:20:27.224Z,26.31
2022-10-17T05:23:15.655Z,26.30
2022-10-17T05:26:04.134Z,26.26
2022-10-17T05:28:53.221Z,26.28
2022-10-17T05:31:43.122Z,26.34
2022-10-17T05:34:31.594Z,26.38
2022-10-17T05:37:19.989Z,26.37
2022-10-17T05:40:09.724Z,26.33
2022-10-17T05:42:58.267Z,26.33
2022-10-17T05:45:47.004Z,26.29
2022-10-17T05:48:37.075Z,26.26
2022-10-17T05:51:27.724Z,26.23
2022-10-17T05:54:16.831Z,26.21
2022-10-17T05:57:05.979Z,26.21
2022-10-17T05:59:54.741Z,26.19
2022-10-17T06:02:43.550Z,26.16
2022-10-17T06:05:33.819Z,26.17
2022-10-17T06:08:23.477Z,26.14
2022-10-17T06:11:12.790Z,26.15
2022-10-17T06:14:01.649Z,26.13
2022-10-17T06:16:50.538Z,26.11
2022-10-17T06:19:41.532Z,26.13
2022-10-17T06:22:32.289Z,26.17
2022-10-17T06:25:21.237Z,26.22
2022-10-17T06:28:10.645Z,26.16
2022-10-17T06:30:59.506Z,26.14
2022-10-17T06:33:48.539Z,26.17
2022-10-17T06:36:38.417Z,26.14
2022-10-17T06:39:33.939Z,26.12
2022-10-17T06:42:23.236Z,26.09
2022-10-17T06:45:12.625Z,26.06
2022-10-17T06:48:01.241Z,26.06
2022-10-17T06:50:50.113Z,26.05
2022-10-17T06:53:40.031Z,26.12
2022-10-17T06:56:30.471Z,26.05
2022-10-17T06:59:19.100Z,26.05
2022-10-17T07:02:08.539Z,26.08
2022-10-17T07:04:57.593Z,26.15
2022-10-17T07:07:48.574Z,26.17
2022-10-17T07:10:41.444Z,26.18
2022-10-17T07:13:34.494Z,26.11
2022-10-17T07:16:27.094Z,26.12
2022-10-17T07:19:15.889Z,26.12
2022-10-17T07:22:04.610Z,26.12
2022-10-17T07:24:53.266Z,26.21
2022-10-17T07:27:42.264Z,26.17
2022-10-17T07:30:32.457Z,26.18
2022-10-17T07:33:21.327Z,26.22
2022-10-17T07:36:10.044Z,26.21
2022-10-17T07:39:01.054Z,26.23
2022-10-17T07:41:50.765Z,26.21
2022-10-17T07:44:39.213Z,26.26
2022-10-17T07:47:31.304Z,26.27
2022-10-17T07:50:21.738Z,26.29
2022-10-17T07:53:10.585Z,26.29
2022-10-17T07:55:59.104Z,26.28
2022-10-17T07:58:48.278Z,26.33
2022-10-17T08:01:36.961Z,26.30
2022-10-17T08:04:26.870Z,26.35
2022-10-17T08:07:22.087Z,26.25
2022-10-17T08:10:13.791Z,26.37
2022-10-17T08:13:04.127Z,26.39
2022-10-17T08:15:52.596Z,26.40
2022-10-17T08:18:42.403Z,26.40
2022-10-17T08:21:32.277Z,26.30
2022-10-17T08:24:20.975Z,26.32
2022-10-17T08:27:11.553Z,26.40
2022-10-17T08:30:00.390Z,26.43
2022-10-17T08:32:48.813Z,26.42
2022-10-17T08:35:37.296Z,26.41
2022-10-17T08:38:27.974Z,26.49
2022-10-17T08:41:25.380Z,26.49
2022-10-17T08:44:20.521Z,26.50
2022-10-17T08:47:13.499Z,26.47
2022-10-17T08:50:05.730Z,26.55
2022-10-17T08:52:56.659Z,26.47
2022-10-17T08:55:48.426Z,26.48
2022-10-17T08:58:40.221Z,26.50
2022-10-17T09:01:35.393Z,26.49
2022-10-17T09:04:40.387Z,26.47
2022-10-17T09:07:33.173Z,26.57
2022-10-17T09:10:27.578Z,26.53
2022-10-17T09:13:27.246Z,26.59
2022-10-17T09:16:31.201Z,26.54
2022-10-17T09:19:24.499Z,26.62
2022-10-17T09:22:16.554Z,26.64
2022-10-17T09:25:08.100Z,26.71
2022-10-17T09:28:01.240Z,26.70
2022-10-17T09:30:55.356Z,26.67
2022-10-17T09:34:00.469Z,26.69
2022-10-17T09:36:49.307Z,26.72
2022-10-17T09:39:38.097Z,26.70
2022-10-17T09:42:28.456Z,26.74
2022-10-17T09:45:24.696Z,26.74
2022-10-17T09:48:20.867Z,26.80
2022-10-17T09:51:25.089Z,26.76
2022-10-17T09:54:22.551Z,26.84
2022-10-17T09:57:14.949Z,26.81
2022-10-17T10:00:06.199Z,26.76
2022-10-17T10:03:10.848Z,26.81
2022-10-17T10:06:04.188Z,26.77
2022-10-17T10:08:54.639Z,26.85
2022-10-17T10:11:48.027Z,26.86
2022-10-17T10:14:40.656Z,26.91
2022-10-17T10:17:36.243Z,26.98
2022-10-17T10:20:30.918Z,26.96
2022-10-17T10:23:22.940Z,26.89
2022-10-17T10:26:22.300Z,26.82
2022-10-17T10:29:23.707Z,26.85
2022-10-17T10:32:14.095Z,26.95
2022-10-17T10:35:05.770Z,26.93
2022-10-17T10:37:56.208Z,26.98
2022-10-17T10:40:49.817Z,26.94
2022-10-17T10:43:42.514Z,27.05
2022-10-17T10:46:32.208Z,26.97
2022-10-17T10:49:31.582Z,26.90
2022-10-17T10:52:31.721Z,26.92
2022-10-17T10:55:25.818Z,26.95
2022-10-17T10:58:26.153Z,26.94
2022-10-17T11:01:23.491Z,26.92
2022-10-17T11:04:23.434Z,26.86
2022-10-17T11:07:15.104Z,26.95
2022-10-17T11:10:10.869Z,27.04
2022-10-17T11:13:02.485Z,27.09
2022-10-17T11:15:56.578Z,27.04
2022-10-17T11:18:49.148Z,26.94
2022-10-17T11:21:45.601Z,27.00
2022-10-17T11:24:39.102Z,27.06
2022-10-17T11:27:28.155Z,27.02
2022-10-17T11:30:17.318Z,27.03
2022-10-17T11:33:07.882Z,26.98
2022-10-17T11:36:01.958Z,27.06
2022-10-17T11:38:53.589Z,27.13
2022-10-17T11:41:44.895Z,27.07
2022-10-17T11:44:36.874Z,27.10
2022-10-17T11:47:33.764Z,27.05
2022-10-17T11:53:48.670Z,27.01
2022-10-17T11:56:42.954Z,27.01
2022-10-17T11:59:55.405Z,27.03
2022-10-17T12:02:48.999Z,27.11
2022-10-17T12:05:46.559Z,27.21
2022-10-17T12:08:40.536Z,27.13
2022-10-17T12:11:35.750Z,27.13
2022-10-17T12:14:42.209Z,27.12
2022-10-17T12:17:34.754Z,27.12
2022-10-17T12:20:29.055Z,27.18
2022-10-17T12:23:29.984Z,27.27
2022-10-17T12:26:27.443Z,27.46
2022-10-17T12:29:27.427Z,27.46
2022-10-17T12:32:16.799Z,27.49
2022-10-17T12:35:05.924Z,27.71
2022-10-17T12:38:25.234Z,27.71
2022-10-17T12:41:15.375Z,27.71
2022-10-17T12:44:03.827Z,27.76
2022-10-17T12:46:53.241Z,27.80
2022-10-17T12:49:46.657Z,27.98
2022-10-17T12:52:59.956Z,27.79
2022-10-17T12:55:51.745Z,27.66
2022-10-17T12:58:44.791Z,27.65
2022-10-17T13:01:34.796Z,27.58
2022-10-17T13:04:23.844Z,27.58
2022-10-17T13:07:19.624Z,27.61
2022-10-17T13:10:17.601Z,27.60
2022-10-17T13:13:15.302Z,27.62
2022-10-17T13:16:05.562Z,27.77
2022-10-17T13:18:54.493Z,27.67
2022-10-17T13:21:51.431Z,27.64
2022-10-17T13:24:41.270Z,27.61
2022-10-17T13:27:31.811Z,27.63
2022-10-17T13:30:29.414Z,27.60
2022-10-17T13:33:32.373Z,27.74
2022-10-17T13:36:20.990Z,27.85
2022-10-17T13:39:12.342Z,28.15
2022-10-17T13:42:04.073Z,28.26
2022-10-17T13:44:53.149Z,28.20
2022-10-17T13:47:43.406Z,28.01
2022-10-17T13:50:44.648Z,28.21
2022-10-17T13:53:34.864Z,28.22
2022-10-17T13:56:29.249Z,27.95
2022-10-17T13:59:25.395Z,27.73
2022-10-17T14:02:17.198Z,27.66
2022-10-17T14:05:18.132Z,27.66
2022-10-17T14:08:14.272Z,27.62
2022-10-17T14:11:16.307Z,27.60
2022-10-17T14:14:07.123Z,27.58
2022-10-17T14:16:55.923Z,27.59
2022-10-17T14:19:48.455Z,27.54
2022-10-17T14:22:50.428Z,27.54
2022-10-17T14:25:45.242Z,27.48
2022-10-17T14:28:34.439Z,27.49
2022-10-17T14:31:27.321Z,27.45
2022-10-17T14:34:32.458Z,27.45
2022-10-17T14:37:33.501Z,27.41
2022-10-17T14:40:24.618Z,27.46
2022-10-17T14:43:23.994Z,27.44
2022-10-17T14:46:17.372Z,27.44
2022-10-17T14:49:08.660Z,27.38
2022-10-17T14:52:29.740Z,27.41
2022-10-17T14:55:24.644Z,27.38
2022-10-17T14:58:35.469Z,27.33
2022-10-17T15:01:24.642Z,27.35
2022-10-17T15:04:13.544Z,27.26
2022-10-17T15:07:02.597Z,27.32
2022-10-17T15:09:52.997Z,27.28
2022-10-17T15:12:51.076Z,27.30
2022-10-17T15:15:52.462Z,27.34
2022-10-17T15:18:41.583Z,27.30
2022-10-17T15:21:40.517Z,27.27
2022-10-17T15:24:32.308Z,27.31
2022-10-17T15:27:22.581Z,27.30
2022-10-17T15:30:21.612Z,27.35
2022-10-17T15:33:12.400Z,27.30
2022-10-17T15:36:01.681Z,27.33
2022-10-17T15:38:51.030Z,27.28
2022-10-17T15:41:39.921Z,27.24
2022-10-17T15:44:29.428Z,27.22
2022-10-17T15:47:24.878Z,27.19
2022-10-17T15:50:16.630Z,27.17
2022-10-17T15:53:07.661Z,27.09
2022-10-17T15:55:56.942Z,27.05
2022-10-17T15:58:45.601Z,27.05
2022-10-17T16:01:35.514Z,27.11
2022-10-17T16:04:27.472Z,27.08
2022-10-17T16:10:35.265Z,27.00
2022-10-17T16:13:25.707Z,26.97
2022-10-17T16:16:31.584Z,26.93
2022-10-17T16:19:21.267Z,26.89
2022-10-17T16:22:19.306Z,26.95
2022-10-17T16:25:10.383Z,26.88
2022-10-17T16:28:02.322Z,26.88
2022-10-17T16:30:52.895Z,26.98
2022-10-17T16:33:41.629Z,26.96
2022-10-17T16:36:30.649Z,26.89
2022-10-17T16:39:21.747Z,26.91
2022-10-17T16:42:10.503Z,26.86
2022-10-17T16:44:59.882Z,26.85
2022-10-17T16:47:48.792Z,26.85
2022-10-17T16:50:41.546Z,26.83
2022-10-17T16:53:31.916Z,26.78
2022-10-17T16:56:24.076Z,26.77
2022-10-17T16:59:13.010Z,26.76
2022-10-17T17:02:01.397Z,26.73
2022-10-17T17:04:49.861Z,26.78
2022-10-17T17:07:38.398Z,26.85
2022-10-17T17:10:26.858Z,26.85
2022-10-17T17:13:16.862Z,26.93
2022-10-17T17:16:07.415Z,26.90
2022-10-17T17:18:57.552Z,26.95
2022-10-17T17:21:50.204Z,26.98
2022-10-17T17:24:39.430Z,27.06
2022-10-17T17:27:29.826Z,27.05
2022-10-17T17:30:20.584Z,27.07
2022-10-17T17:33:11.520Z,27.13
2022-10-17T17:36:02.323Z,27.23
2022-10-17T17:38:52.268Z,27.27
2022-10-17T17:41:43.977Z,27.29
2022-10-17T17:44:34.405Z,27.42
2022-10-17T17:47:25.334Z,27.52
2022-10-17T17:50:15.368Z,27.56
2022-10-17T17:53:04.016Z,27.58
2022-10-17T17:56:03.190Z,27.66
2022-10-17T17:58:58.196Z,27.73
2022-10-17T18:01:47.427Z,27.81
2022-10-17T18:04:37.485Z,27.90
2022-10-17T18:07:26.084Z,27.77
2022-10-17T18:13:04.047Z,27.82
2022-10-17T18:15:52.823Z,27.70
2022-10-17T18:18:42.201Z,27.66
2022-10-17T18:21:32.302Z,27.94
2022-10-17T18:24:20.820Z,28.20
2022-10-17T18:27:09.334Z,28.22
2022-10-17T18:29:57.919Z,28.35
2022-10-17T18:32:46.419Z,28.29
2022-10-17T18:35:36.130Z,28.42
2022-10-17T18:38:26.330Z,28.49
2022-10-17T18:41:16.108Z,28.33
2022-10-17T18:44:04.685Z,28.33
2022-10-17T18:46:53.472Z,28.39
2022-10-17T18:49:42.870Z,28.38
2022-10-17T18:52:31.245Z,28.40
2022-10-17T18:55:21.227Z,28.28
2022-10-17T18:58:10.672Z,28.47
2022-10-17T19:01:04.446Z,28.22
2022-10-17T19:03:54.135Z,28.53
2022-10-17T19:06:43.318Z,28.53
2022-10-17T19:09:31.807Z,28.17
2022-10-17T19:12:21.669Z,28.23
2022-10-17T19:15:11.501Z,28.26
2022-10-17T19:17:59.915Z,28.28
2022-10-17T19:20:48.463Z,28.25
2022-10-17T19:23:38.029Z,28.25
2022-10-17T19:26:27.515Z,28.21
2022-10-17T19:29:18.946Z,28.22
2022-10-17T19:32:14.193Z,28.26
2022-10-17T19:35:05.937Z,28.14
2022-10-17T19:37:54.415Z,28.19
2022-10-17T19:40:42.841Z,28.20
2022-10-17T19:43:31.570Z,28.17
2022-10-17T19:46:24.648Z,28.25
2022-10-17T19:49:13.252Z,28.16
2022-10-17T19:52:01.892Z,28.09
2022-10-17T19:54:53.280Z,28.13
2022-10-17T19:57:41.732Z,28.14
2022-10-17T20:00:30.153Z,28.39
2022-10-17T20:03:21.422Z,28.48
2022-10-17T20:06:10.218Z,28.58
2022-10-17T20:08:58.686Z,28.65
2022-10-17T20:11:47.528Z,28.70
2022-10-17T20:14:40.079Z,28.72
2022-10-17T20:17:29.446Z,28.83
2022-10-17T20:20:19.749Z,28.80
2022-10-17T20:23:08.248Z,28.82
2022-10-17T20:26:08.709Z,28.90
2022-10-17T20:29:13.419Z,28.90
2022-10-17T20:32:04.311Z,28.61
2022-10-17T20:34:53.380Z,28.71
2022-10-17T20:37:43.139Z,28.87
2022-10-17T20:40:35.569Z,28.86
2022-10-17T20:43:24.303Z,28.94
2022-10-17T20:46:23.541Z,28.90
2022-10-17T20:49:24.917Z,28.92
2022-10-17T20:52:13.342Z,28.97
2022-10-17T20:55:04.340Z,28.74
2022-10-17T20:57:54.262Z,28.58
2022-10-17T21:00:43.641Z,28.30
2022-10-17T21:03:32.087Z,28.56
2022-10-17T21:06:21.333Z,28.58
2022-10-17T21:09:10.924Z,28.77
2022-10-17T21:14:54.736Z,28.70
2022-10-17T21:17:43.129Z,28.69
2022-10-17T21:20:32.456Z,28.74
2022-10-17T21:23:20.929Z,28.66
2022-10-17T21:26:10.125Z,28.53
2022-10-17T21:29:03.015Z,28.65
2022-10-17T21:31:51.808Z,28.26
2022-10-17T21:34:40.355Z,28.34
2022-10-17T21:37:28.787Z,28.24
2022-10-17T21:40:17.517Z,28.35
2022-10-17T21:43:05.961Z,28.59
2022-10-17T21:45:55.715Z,28.79
2022-10-17T21:48:44.522Z,28.81
2022-10-17T21:51:32.926Z,28.72
2022-10-17T21:54:23.983Z,28.77
2022-10-17T21:57:12.473Z,28.76
2022-10-17T22:00:00.960Z,28.79
2022-10-17T22:02:50.746Z,28.57
2022-10-17T22:05:39.187Z,28.61
2022-10-17T22:08:27.695Z,28.43
2022-10-17T22:11:18.444Z,28.61
2022-10-17T22:14:08.762Z,28.64
2022-10-17T22:16:58.426Z,28.70
2022-10-17T22:19:48.931Z,28.69
2022-10-17T22:22:37.423Z,28.73
2022-10-17T22:25:25.974Z,28.83
2022-10-17T22:28:14.439Z,28.87
2022-10-17T22:31:03.417Z,28.83
2022-10-17T22:33:52.124Z,28.90
2022-10-17T22:36:41.896Z,28.90
2022-10-17T22:39:30.386Z,28.67
2022-10-17T22:42:18.869Z,28.32
2022-10-17T22:45:07.997Z,28.28
2022-10-17T22:47:56.454Z,28.34
2022-10-17T22:50:45.708Z,28.28
2022-10-17T22:53:37.307Z,28.26
2022-10-17T22:56:25.817Z,28.22
2022-10-17T22:59:15.395Z,28.09
2022-10-17T23:02:03.915Z,28.06
2022-10-17T23:04:52.470Z,28.00
2022-10-17T23:07:40.908Z,28.00
2022-10-17T23:10:30.677Z,27.85
2022-10-17T23:13:19.867Z,27.84
2022-10-17T23:16:09.775Z,27.82
2022-10-17T23:18:59.104Z,27.86
2022-10-17T23:21:47.564Z,27.79
2022-10-17T23:24:36.462Z,27.71
2022-10-17T23:27:26.303Z,27.66
2022-10-17T23:30:14.746Z,27.62
2022-10-17T23:33:03.300Z,27.62
2022-10-17T23:35:51.753Z,27.57
2022-10-17T23:38:40.608Z,27.56
2022-10-17T23:41:29.043Z,27.52
2022-10-17T23:44:19.246Z,27.49
2022-10-17T23:47:07.655Z,27.51
2022-10-17T23:49:56.087Z,27.43
2022-10-17T23:52:46.885Z,27.42
2022-10-17T23:55:35.337Z,27.38
2022-10-17T23:58:23.799Z,27.42
